createdAt,value
2019-01-10T00:01:07.814Z,71.35
2019-01-10T00:03:37.686Z,71.45
2019-01-10T00:06:07.636Z,71.47
2019-01-10T00:08:37.499Z,71.36
2019-01-10T00:11:07.233Z,71.31
2019-01-10T00:13:37.149Z,71.41
2019-01-10T00:16:07.021Z,71.47
2019-01-10T00:18:37.161Z,71.48
2019-01-10T00:21:07.251Z,71.57
2019-01-10T00:23:37.385Z,71.52
2019-01-10T00:26:07.211Z,71.49
2019-01-10T00:28:37.115Z,71.47
2019-01-10T00:31:07.314Z,71.45
2019-01-10T00:33:37.152Z,71.48
2019-01-10T00:36:07.313Z,71.50
2019-01-10T00:38:37.161Z,71.55
2019-01-10T00:41:06.987Z,71.55
2019-01-10T00:43:37.084Z,71.56
2019-01-10T00:46:07.030Z,71.58
2019-01-10T00:48:36.881Z,71.58
2019-01-10T00:51:06.816Z,71.59
2019-01-10T00:53:36.718Z,71.67
2019-01-10T00:56:06.834Z,71.73
2019-01-10T00:58:36.768Z,71.70
2019-01-10T01:01:06.469Z,71.70
2019-01-10T01:03:36.262Z,71.70
2019-01-10T01:06:06.786Z,71.68
2019-01-10T01:08:36.504Z,71.63
2019-01-10T01:11:07.722Z,71.63
2019-01-10T01:13:37.545Z,71.72
2019-01-10T01:16:07.536Z,71.70
2019-01-10T01:18:37.682Z,71.90
2019-01-10T01:21:07.481Z,71.91
2019-01-10T01:23:37.295Z,71.84
2019-01-10T01:26:07.450Z,71.94
2019-01-10T01:28:37.188Z,72.05
2019-01-10T01:31:07.223Z,72.18
2019-01-10T01:33:37.070Z,72.32
2019-01-10T01:36:07.200Z,72.28
2019-01-10T01:38:37.118Z,72.32
2019-01-10T01:41:07.067Z,72.30
2019-01-10T01:43:36.953Z,72.20
2019-01-10T01:46:07.834Z,72.16
2019-01-10T01:48:37.753Z,72.32
2019-01-10T01:51:07.586Z,72.34
2019-01-10T01:53:37.195Z,72.34
2019-01-10T01:56:07.309Z,72.39
2019-01-10T01:58:37.147Z,72.36
2019-01-10T02:01:07.121Z,72.20
2019-01-10T02:03:37.066Z,72.13
2019-01-10T02:06:07.012Z,72.27
2019-01-10T02:08:36.836Z,72.17
2019-01-10T02:11:07.062Z,72.14
2019-01-10T02:13:36.842Z,72.12
2019-01-10T02:16:06.747Z,71.91
2019-01-10T02:18:36.524Z,71.88
2019-01-10T02:21:06.305Z,71.89
2019-01-10T02:23:35.973Z,71.90
2019-01-10T02:26:05.920Z,71.91
2019-01-10T02:28:35.624Z,72.04
2019-01-10T02:31:05.342Z,72.09
2019-01-10T02:33:35.270Z,72.10
2019-01-10T02:36:05.341Z,72.07
2019-01-10T02:38:35.039Z,72.18
2019-01-10T02:41:04.885Z,72.33
2019-01-10T02:43:34.518Z,72.51
2019-01-10T02:46:04.275Z,72.65
2019-01-10T02:48:34.191Z,72.73
2019-01-10T02:51:03.916Z,72.80
2019-01-10T02:53:33.575Z,72.83
2019-01-10T02:56:03.713Z,72.88
2019-01-10T02:58:33.451Z,72.88
2019-01-10T03:01:03.097Z,72.86
2019-01-10T03:03:33.017Z,72.90
2019-01-10T03:06:02.807Z,72.89
2019-01-10T03:08:32.386Z,72.77
2019-01-10T03:11:02.532Z,72.86
2019-01-10T03:13:36.884Z,73.30
2019-01-10T03:16:04.106Z,73.66
2019-01-10T03:18:33.927Z,73.92
2019-01-10T03:21:03.742Z,73.99
2019-01-10T03:23:33.680Z,73.89
2019-01-10T03:26:03.390Z,73.61
2019-01-10T03:28:33.074Z,73.34
2019-01-10T03:31:02.769Z,73.18
2019-01-10T03:33:32.511Z,73.14
2019-01-10T03:36:02.082Z,73.16
2019-01-10T03:38:32.042Z,73.16
2019-01-10T03:41:01.982Z,73.16
2019-01-10T03:43:31.860Z,73.18
2019-01-10T03:46:01.966Z,73.20
2019-01-10T03:48:31.757Z,73.24
2019-01-10T03:51:01.410Z,73.29
2019-01-10T03:53:31.404Z,73.33
2019-01-10T03:56:01.172Z,73.30
2019-01-10T03:58:31.056Z,73.46
2019-01-10T04:01:01.224Z,73.76
2019-01-10T04:03:30.874Z,74.08
2019-01-10T04:06:00.598Z,74.03
2019-01-10T04:08:30.382Z,73.76
2019-01-10T04:11:00.065Z,73.47
2019-01-10T04:13:29.837Z,73.31
2019-01-10T04:15:59.751Z,73.31
2019-01-10T04:18:29.325Z,73.26
2019-01-10T04:20:59.062Z,73.24
2019-01-10T04:23:28.841Z,73.18
2019-01-10T04:25:58.621Z,73.17
2019-01-10T04:28:28.360Z,73.23
2019-01-10T04:30:58.228Z,73.45
2019-01-10T04:33:27.935Z,73.78
2019-01-10T04:35:57.701Z,74.04
2019-01-10T04:38:27.594Z,74.27
2019-01-10T04:40:57.326Z,74.55
2019-01-10T04:43:27.188Z,74.58
2019-01-10T04:45:57.057Z,74.57
2019-01-10T04:48:26.968Z,74.40
2019-01-10T04:50:56.854Z,74.34
2019-01-10T04:53:26.873Z,74.57
2019-01-10T04:55:56.620Z,74.88
2019-01-10T04:58:26.523Z,74.98
2019-01-10T05:00:56.350Z,74.65
2019-01-10T05:03:26.675Z,74.27
2019-01-10T05:05:56.256Z,73.97
2019-01-10T05:08:26.329Z,73.83
2019-01-10T05:10:55.959Z,73.78
2019-01-10T05:13:25.667Z,73.91
2019-01-10T05:15:55.605Z,74.13
2019-01-10T05:18:25.297Z,74.37
2019-01-10T05:20:55.189Z,74.80
2019-01-10T05:23:25.045Z,75.15
2019-01-10T05:25:54.682Z,75.44
2019-01-10T05:28:24.442Z,75.49
2019-01-10T05:30:54.276Z,75.54
2019-01-10T05:33:24.065Z,75.64
2019-01-10T05:35:53.805Z,75.68
2019-01-10T05:38:23.592Z,75.59
2019-01-10T05:40:53.500Z,75.60
2019-01-10T05:43:23.230Z,75.55
2019-01-10T05:45:53.129Z,75.50
2019-01-10T05:48:22.765Z,75.50
2019-01-10T05:50:52.434Z,75.59
2019-01-10T05:53:22.290Z,75.71
2019-01-10T05:55:51.857Z,75.81
2019-01-10T05:58:21.636Z,75.79
2019-01-10T06:00:51.324Z,75.78
2019-01-10T06:03:21.042Z,75.69
2019-01-10T06:05:50.626Z,75.65
2019-01-10T06:08:20.349Z,75.65
2019-01-10T06:10:49.982Z,75.74
2019-01-10T06:13:19.593Z,75.74
2019-01-10T06:15:49.445Z,75.81
2019-01-10T06:18:19.193Z,75.83
2019-01-10T06:20:49.178Z,75.80
2019-01-10T06:23:19.205Z,75.89
2019-01-10T06:25:48.894Z,75.92
2019-01-10T06:28:20.342Z,75.88
2019-01-10T06:30:50.319Z,75.78
2019-01-10T06:33:20.054Z,75.77
2019-01-10T06:35:49.823Z,75.81
2019-01-10T06:38:19.758Z,75.76
2019-01-10T06:40:49.563Z,75.68
2019-01-10T06:43:19.136Z,75.53
2019-01-10T06:45:49.043Z,75.21
2019-01-10T06:48:18.711Z,74.92
2019-01-10T06:50:48.348Z,74.69
2019-01-10T06:53:18.225Z,74.59
2019-01-10T06:55:47.881Z,74.40
2019-01-10T06:58:17.554Z,74.35
2019-01-10T07:00:47.353Z,74.29
2019-01-10T07:03:17.024Z,74.21
2019-01-10T07:05:46.723Z,74.40
2019-01-10T07:08:16.648Z,74.70
2019-01-10T07:10:46.367Z,74.83
2019-01-10T07:13:16.050Z,74.93
2019-01-10T07:15:45.759Z,75.03
2019-01-10T07:18:15.398Z,75.13
2019-01-10T07:20:45.300Z,75.21
2019-01-10T07:23:15.312Z,75.33
2019-01-10T07:25:44.953Z,75.34
2019-01-10T07:28:39.830Z,75.39
2019-01-10T07:31:29.881Z,75.34
2019-01-10T07:34:04.563Z,75.35
2019-01-10T07:36:34.230Z,75.41
2019-01-10T07:39:05.543Z,75.49
2019-01-10T07:41:38.216Z,75.48
2019-01-10T07:44:10.112Z,75.46
2019-01-10T07:46:46.339Z,75.42
2019-01-10T07:49:16.292Z,75.29
2019-01-10T07:51:45.985Z,75.27
2019-01-10T07:54:15.973Z,75.27
2019-01-10T07:56:45.888Z,75.30
2019-01-10T07:59:15.683Z,75.29
2019-01-10T08:01:45.276Z,75.27
2019-01-10T08:04:15.259Z,75.13
2019-01-10T08:06:45.053Z,75.20
2019-01-10T08:09:14.623Z,75.12
2019-01-10T08:11:44.455Z,75.12
2019-01-10T08:14:14.243Z,75.15
2019-01-10T08:16:44.089Z,75.10
2019-01-10T08:19:13.996Z,75.01
2019-01-10T08:21:43.676Z,74.99
2019-01-10T08:24:13.423Z,74.99
2019-01-10T08:26:43.241Z,74.97
2019-01-10T08:29:12.801Z,74.99
2019-01-10T08:31:42.378Z,74.96
2019-01-10T08:34:12.177Z,74.98
2019-01-10T08:36:42.098Z,75.11
2019-01-10T08:39:11.684Z,75.18
2019-01-10T08:41:41.574Z,75.23
2019-01-10T08:44:11.358Z,75.17
2019-01-10T08:46:41.060Z,75.10
2019-01-10T08:49:10.755Z,75.10
2019-01-10T08:51:40.501Z,75.16
2019-01-10T08:54:10.400Z,75.13
2019-01-10T08:56:40.289Z,75.10
2019-01-10T08:59:10.160Z,75.16
2019-01-10T09:01:39.947Z,75.15
2019-01-10T09:04:09.739Z,75.15
2019-01-10T09:06:39.345Z,75.22
2019-01-10T09:09:10.417Z,75.18
2019-01-10T09:11:40.124Z,75.20
2019-01-10T09:14:09.897Z,75.19
2019-01-10T09:16:39.669Z,75.18
2019-01-10T09:19:09.401Z,75.16
2019-01-10T09:21:39.139Z,75.23
2019-01-10T09:24:09.149Z,75.22
2019-01-10T09:26:38.817Z,75.23
2019-01-10T09:29:08.429Z,75.22
2019-01-10T09:31:38.430Z,75.20
2019-01-10T09:34:08.273Z,75.12
2019-01-10T09:36:38.204Z,75.16
2019-01-10T09:39:09.585Z,75.15
2019-01-10T09:41:39.379Z,75.05
2019-01-10T09:44:09.182Z,75.08
2019-01-10T09:46:39.126Z,75.08
2019-01-10T09:49:09.034Z,75.03
2019-01-10T09:51:38.863Z,75.09
2019-01-10T09:54:09.001Z,75.08
2019-01-10T09:56:38.579Z,75.18
2019-01-10T09:59:08.290Z,75.17
2019-01-10T10:01:38.227Z,75.17
2019-01-10T10:04:08.039Z,75.25
2019-01-10T10:06:37.618Z,75.19
2019-01-10T10:09:09.178Z,75.15
2019-01-10T10:11:39.017Z,75.38
2019-01-10T10:14:09.186Z,75.39
2019-01-10T10:16:39.067Z,75.42
2019-01-10T10:19:08.810Z,75.44
2019-01-10T10:21:38.444Z,75.48
2019-01-10T10:24:08.431Z,75.46
2019-01-10T10:26:38.165Z,75.54
2019-01-10T10:29:07.975Z,75.45
2019-01-10T10:31:37.763Z,75.54
2019-01-10T10:34:07.472Z,75.57
2019-01-10T10:36:37.162Z,75.74
2019-01-10T10:39:09.459Z,75.71
2019-01-10T10:41:40.636Z,75.74
2019-01-10T10:44:10.659Z,75.82
2019-01-10T10:46:40.384Z,76.12
2019-01-10T10:49:10.355Z,76.29
2019-01-10T10:51:40.196Z,76.21
2019-01-10T10:54:10.001Z,76.30
2019-01-10T10:56:39.711Z,76.61
2019-01-10T10:59:09.868Z,76.71
2019-01-10T11:01:39.618Z,76.80
2019-01-10T11:04:09.451Z,76.86
2019-01-10T11:06:39.387Z,76.88
2019-01-10T11:09:10.186Z,77.06
2019-01-10T11:11:40.387Z,77.23
2019-01-10T11:14:10.269Z,77.22
2019-01-10T11:16:40.164Z,77.30
2019-01-10T11:19:10.274Z,77.37
2019-01-10T11:21:40.002Z,77.47
2019-01-10T11:24:09.708Z,77.50
2019-01-10T11:26:39.593Z,77.73
2019-01-10T11:29:09.496Z,77.84
2019-01-10T11:31:39.370Z,77.84
2019-01-10T11:34:09.410Z,77.91
2019-01-10T11:36:39.250Z,77.78
2019-01-10T11:39:09.628Z,77.80
2019-01-10T11:41:39.696Z,78.10
2019-01-10T11:44:09.341Z,78.05
2019-01-10T11:46:39.050Z,77.94
2019-01-10T11:49:09.035Z,77.78
2019-01-10T11:51:38.760Z,77.78
2019-01-10T11:54:08.308Z,77.80
2019-01-10T11:56:38.066Z,77.75
2019-01-10T11:59:07.676Z,77.73
2019-01-10T12:01:37.435Z,77.64
2019-01-10T12:04:07.290Z,77.57
2019-01-10T12:06:37.139Z,77.64
2019-01-10T12:09:08.573Z,77.73
2019-01-10T12:11:38.389Z,77.72
2019-01-10T12:14:08.322Z,77.68
2019-01-10T12:16:38.369Z,77.66
2019-01-10T12:19:08.200Z,77.59
2019-01-10T12:21:37.972Z,77.50
2019-01-10T12:24:07.725Z,77.46
2019-01-10T12:26:37.466Z,77.47
2019-01-10T12:29:07.468Z,77.43
2019-01-10T12:31:37.492Z,77.49
2019-01-10T12:34:07.316Z,77.50
2019-01-10T12:36:37.033Z,77.52
2019-01-10T12:39:08.441Z,77.47
2019-01-10T12:41:39.110Z,77.42
2019-01-10T12:44:09.012Z,77.44
2019-01-10T12:46:38.885Z,77.38
2019-01-10T12:49:08.781Z,77.33
2019-01-10T12:51:38.470Z,77.31
2019-01-10T12:54:08.182Z,77.29
2019-01-10T12:56:38.017Z,77.28
2019-01-10T12:59:08.058Z,77.29
2019-01-10T13:01:37.539Z,77.28
2019-01-10T13:04:08.946Z,77.30
2019-01-10T13:06:38.880Z,77.20
2019-01-10T13:09:09.355Z,76.90
2019-01-10T13:11:39.263Z,76.68
2019-01-10T13:14:09.036Z,76.51
2019-01-10T13:16:46.845Z,76.27
2019-01-10T13:19:10.633Z,75.97
2019-01-10T13:21:40.382Z,75.76
2019-01-10T13:24:10.203Z,75.51
2019-01-10T13:26:40.407Z,75.39
2019-01-10T13:29:10.279Z,75.34
2019-01-10T13:31:40.272Z,75.29
2019-01-10T13:34:10.306Z,75.20
2019-01-10T13:36:40.169Z,75.30
2019-01-10T13:39:10.648Z,75.22
2019-01-10T13:41:40.772Z,75.17
2019-01-10T13:44:10.675Z,75.16
2019-01-10T13:46:40.428Z,75.05
2019-01-10T13:49:10.549Z,75.29
2019-01-10T13:51:40.437Z,75.32
2019-01-10T13:54:10.267Z,75.32
2019-01-10T13:56:40.201Z,75.35
2019-01-10T13:59:10.192Z,75.42
2019-01-10T14:01:39.957Z,75.49
2019-01-10T14:04:09.749Z,75.49
2019-01-10T14:06:39.687Z,75.67
2019-01-10T14:09:11.083Z,75.67
2019-01-10T14:11:40.757Z,75.62
2019-01-10T14:14:10.409Z,75.71
2019-01-10T14:16:40.382Z,75.74
2019-01-10T14:19:10.244Z,75.68
2019-01-10T14:21:40.147Z,75.76
2019-01-10T14:24:10.291Z,75.81
2019-01-10T14:26:40.130Z,76.13
2019-01-10T14:29:10.120Z,76.25
2019-01-10T14:31:40.022Z,76.38
2019-01-10T14:34:14.152Z,76.74
2019-01-10T14:36:41.893Z,77.17
2019-01-10T14:39:11.568Z,77.74
2019-01-10T14:41:41.544Z,78.18
2019-01-10T14:44:11.422Z,78.58
2019-01-10T14:46:41.400Z,79.10
2019-01-10T14:49:11.097Z,79.06
2019-01-10T14:51:41.204Z,79.75
2019-01-10T14:54:11.037Z,80.12
2019-01-10T14:56:43.071Z,79.94
2019-01-10T14:59:13.025Z,79.90
2019-01-10T15:01:42.695Z,80.44
2019-01-10T15:04:12.534Z,80.67
2019-01-10T15:06:45.600Z,80.70
2019-01-10T15:09:15.647Z,80.86
2019-01-10T15:11:45.178Z,81.23
2019-01-10T15:14:16.343Z,81.05
2019-01-10T15:16:46.178Z,81.49
2019-01-10T15:19:16.265Z,82.59
2019-01-10T15:21:45.869Z,82.13
2019-01-10T15:24:15.410Z,82.17
2019-01-10T15:26:46.752Z,82.22
2019-01-10T15:29:16.258Z,82.36
2019-01-10T15:31:46.066Z,82.33
2019-01-10T15:34:15.789Z,82.27
2019-01-10T15:36:45.515Z,82.49
2019-01-10T15:39:15.344Z,82.57
2019-01-10T15:41:45.008Z,82.77
2019-01-10T15:44:14.694Z,82.82
2019-01-10T15:46:44.694Z,82.86
2019-01-10T15:49:14.388Z,83.05
2019-01-10T15:51:44.276Z,83.57
2019-01-10T15:54:14.152Z,83.52
2019-01-10T15:56:43.954Z,83.65
2019-01-10T15:59:13.582Z,83.56
2019-01-10T16:01:43.758Z,83.85
2019-01-10T16:04:13.338Z,83.81
2019-01-10T16:06:43.108Z,83.96
2019-01-10T16:09:15.886Z,84.08
2019-01-10T16:11:45.520Z,84.38
2019-01-10T16:14:15.324Z,84.28
2019-01-10T16:16:45.545Z,84.39
2019-01-10T16:19:15.806Z,84.32
2019-01-10T16:21:45.647Z,84.36
2019-01-10T16:24:17.037Z,84.29
2019-01-10T16:26:47.069Z,84.11
2019-01-10T16:29:18.667Z,84.21
2019-01-10T16:31:48.634Z,84.61
2019-01-10T16:34:18.340Z,85.08
2019-01-10T16:36:49.311Z,85.01
2019-01-10T16:39:19.625Z,84.95
2019-01-10T16:41:49.654Z,85.25
2019-01-10T16:44:19.883Z,85.19
2019-01-10T16:46:51.437Z,85.20
2019-01-10T16:49:21.530Z,85.12
2019-01-10T16:51:51.890Z,85.35
2019-01-10T16:54:22.092Z,85.22
2019-01-10T16:56:52.368Z,85.41
2019-01-10T16:59:23.555Z,85.30
2019-01-10T17:01:53.328Z,85.41
2019-01-10T17:04:23.223Z,85.36
2019-01-10T17:06:53.434Z,85.33
2019-01-10T17:09:23.091Z,85.47
2019-01-10T17:11:52.834Z,85.47
2019-01-10T17:14:22.699Z,85.43
2019-01-10T17:16:52.378Z,85.32
2019-01-10T17:19:22.405Z,85.39
2019-01-10T17:21:52.419Z,85.32
2019-01-10T17:24:22.087Z,85.39
2019-01-10T17:26:52.155Z,85.48
2019-01-10T17:29:22.221Z,85.45
2019-01-10T17:31:51.946Z,85.44
2019-01-10T17:34:21.662Z,85.51
2019-01-10T17:36:51.778Z,85.61
2019-01-10T17:39:21.593Z,85.70
2019-01-10T17:41:51.307Z,85.78
2019-01-10T17:44:21.285Z,85.81
2019-01-10T17:46:51.031Z,85.62
2019-01-10T17:49:20.612Z,85.59
2019-01-10T17:51:50.689Z,85.72
2019-01-10T17:54:20.353Z,86.08
2019-01-10T17:56:49.944Z,86.11
2019-01-10T17:59:19.825Z,86.05
2019-01-10T18:01:49.390Z,86.16
2019-01-10T18:04:18.970Z,86.14
2019-01-10T18:06:48.900Z,86.06
2019-01-10T18:09:18.561Z,86.15
2019-01-10T18:11:48.185Z,86.32
2019-01-10T18:14:18.069Z,86.16
2019-01-10T18:16:47.746Z,86.15
2019-01-10T18:19:17.451Z,86.09
2019-01-10T18:21:47.221Z,86.17
2019-01-10T18:24:16.939Z,86.31
2019-01-10T18:26:46.643Z,86.47
2019-01-10T18:29:16.524Z,86.82
2019-01-10T18:31:46.194Z,86.67
2019-01-10T18:34:15.813Z,86.56
2019-01-10T18:36:45.865Z,86.56
2019-01-10T18:39:15.528Z,86.54
2019-01-10T18:41:45.063Z,86.56
2019-01-10T18:44:15.043Z,86.68
2019-01-10T18:46:44.623Z,86.86
2019-01-10T18:49:14.421Z,87.16
2019-01-10T18:51:44.451Z,87.25
2019-01-10T18:54:14.235Z,86.90
2019-01-10T18:56:44.041Z,87.05
2019-01-10T18:59:13.867Z,86.92
2019-01-10T19:01:43.561Z,87.08
2019-01-10T19:04:13.276Z,87.27
2019-01-10T19:06:44.069Z,87.18
2019-01-10T19:09:13.725Z,87.64
2019-01-10T19:11:43.443Z,87.51
2019-01-10T19:14:13.381Z,87.45
2019-01-10T19:16:42.883Z,87.56
2019-01-10T19:19:12.769Z,87.38
2019-01-10T19:21:42.810Z,87.47
2019-01-10T19:24:12.858Z,87.32
2019-01-10T19:26:42.487Z,87.16
2019-01-10T19:29:13.163Z,87.38
2019-01-10T19:31:43.034Z,87.36
2019-01-10T19:34:14.279Z,87.50
2019-01-10T19:36:44.071Z,87.64
2019-01-10T19:39:13.694Z,87.57
2019-01-10T19:41:43.622Z,87.46
2019-01-10T19:44:13.146Z,87.54
2019-01-10T19:46:42.799Z,87.48
2019-01-10T19:49:12.582Z,87.57
2019-01-10T19:51:42.139Z,87.75
2019-01-10T19:54:11.752Z,87.84
2019-01-10T19:56:41.622Z,87.81
2019-01-10T19:59:11.279Z,87.83
2019-01-10T20:01:40.897Z,87.86
2019-01-10T20:04:10.735Z,87.80
2019-01-10T20:06:40.660Z,87.83
2019-01-10T20:09:10.887Z,87.82
2019-01-10T20:11:40.883Z,87.94
2019-01-10T20:14:10.579Z,87.85
2019-01-10T20:16:40.415Z,88.05
2019-01-10T20:19:11.790Z,88.14
2019-01-10T20:21:43.261Z,88.04
2019-01-10T20:24:13.062Z,87.94
2019-01-10T20:26:42.701Z,88.06
2019-01-10T20:29:12.430Z,88.08
2019-01-10T20:31:42.218Z,88.22
2019-01-10T20:34:11.755Z,88.27
2019-01-10T20:36:41.550Z,88.43
2019-01-10T20:39:11.236Z,88.49
2019-01-10T20:41:40.853Z,88.28
2019-01-10T20:44:10.598Z,88.22
2019-01-10T20:46:40.589Z,88.35
2019-01-10T20:49:10.426Z,88.29
2019-01-10T20:51:40.358Z,88.25
2019-01-10T20:54:10.264Z,88.81
2019-01-10T20:56:40.206Z,88.98
2019-01-10T20:59:10.164Z,88.66
2019-01-10T21:01:40.072Z,88.69
2019-01-10T21:04:09.811Z,88.60
2019-01-10T21:06:39.472Z,88.51
2019-01-10T21:09:13.109Z,88.46
2019-01-10T21:11:41.760Z,88.49
2019-01-10T21:14:11.499Z,88.63
2019-01-10T21:16:41.518Z,88.52
2019-01-10T21:19:11.395Z,88.56
2019-01-10T21:21:41.443Z,88.42
2019-01-10T21:24:11.357Z,88.53
2019-01-10T21:26:40.827Z,88.64
2019-01-10T21:29:10.809Z,88.46
2019-01-10T21:31:40.490Z,88.36
2019-01-10T21:34:10.281Z,88.30
2019-01-10T21:36:40.151Z,88.27
2019-01-10T21:39:10.026Z,88.30
2019-01-10T21:41:39.539Z,88.31
2019-01-10T21:44:09.546Z,88.39
2019-01-10T21:46:39.273Z,88.42
2019-01-10T21:49:08.922Z,88.37
2019-01-10T21:51:39.101Z,88.28
2019-01-10T21:54:09.227Z,88.30
2019-01-10T21:56:38.938Z,88.52
2019-01-10T21:59:08.898Z,88.34
2019-01-10T22:01:40.096Z,88.63
2019-01-10T22:04:10.052Z,88.63
2019-01-10T22:06:39.933Z,88.36
2019-01-10T22:09:09.848Z,88.37
2019-01-10T22:11:39.590Z,88.34
2019-01-10T22:14:09.342Z,88.38
2019-01-10T22:16:39.050Z,88.40
2019-01-10T22:19:08.953Z,88.42
2019-01-10T22:21:38.603Z,88.44
2019-01-10T22:24:08.469Z,88.49
2019-01-10T22:26:38.328Z,88.46
2019-01-10T22:29:08.199Z,88.46
2019-01-10T22:31:37.895Z,88.51
2019-01-10T22:34:07.792Z,88.52
2019-01-10T22:36:37.479Z,88.47
2019-01-10T22:39:09.318Z,88.59
2019-01-10T22:41:39.205Z,88.49
2019-01-10T22:44:08.977Z,88.49
2019-01-10T22:46:39.138Z,88.48
2019-01-10T22:49:08.919Z,88.71
2019-01-10T22:51:38.549Z,88.57
2019-01-10T22:54:08.537Z,88.68
2019-01-10T22:56:38.346Z,88.68
2019-01-10T22:59:08.279Z,88.51
2019-01-10T23:01:49.323Z,88.26
2019-01-10T23:04:35.008Z,88.26
2019-01-10T23:07:06.764Z,88.56
2019-01-10T23:09:36.394Z,88.73
2019-01-10T23:12:07.491Z,88.64
2019-01-10T23:14:37.099Z,88.73
2019-01-10T23:17:06.989Z,88.77
2019-01-10T23:19:40.282Z,88.83
2019-01-10T23:22:12.856Z,88.89
2019-01-10T23:24:42.560Z,88.88
2019-01-10T23:27:12.162Z,89.19
2019-01-10T23:29:41.682Z,89.19
2019-01-10T23:32:16.272Z,88.88
2019-01-10T23:34:50.205Z,88.88
2019-01-10T23:37:27.802Z,89.08
2019-01-10T23:39:57.831Z,89.25
2019-01-10T23:42:27.442Z,90.06
2019-01-10T23:44:57.274Z,89.78
2019-01-10T23:47:26.912Z,89.77
2019-01-10T23:49:56.586Z,89.70
2019-01-10T23:52:26.582Z,89.63
2019-01-10T23:54:56.137Z,89.69
2019-01-10T23:57:25.695Z,89.80
2019-01-10T23:59:55.479Z,89.86
